Time;durP1;ratioP1;P1;durP2;ratioP2;P2;SDS_P1;SDS_P2;PMS_P1;PMS_P2;Temp;Humidity;BMP_temperature;BMP_pressure;BME280_temperature;BME280_humidity;BME280_pressure;Samples;Min_cycle;Max_cycle;Signal;HPM_P1;HPM_P2
2022/10/03 00:02:52;;;;;;;10.55;3.70;;;;;;;10.25;100.00;102576.03;10571608;28;20417;-75
2022/10/03 00:08:30;;;;;;;10.07;3.42;;;;;;;10.20;100.00;102581.03;10588976;28;20027;-74
2022/10/03 00:13:42;;;;;;;14.30;4.03;;;;;;;10.15;100.00;102586.06;10589872;28;20035;-74
2022/10/03 00:18:42;;;;;;;11.18;2.97;;;;;;;10.10;100.00;102582.97;10588340;28;20523;-74
2022/10/03 00:24:08;;;;;;;9.20;3.45;;;;;;;10.09;100.00;102585.84;10588814;28;20081;-75
2022/10/03 00:29:27;;;;;;;1.90;1.80;;;;;;;10.00;100.00;102588.44;10569804;28;20028;-74
2022/10/03 00:35:11;;;;;;;3.15;2.20;;;;;;;9.90;100.00;102594.94;10587919;28;20030;-74
2022/10/03 00:40:45;;;;;;;12.63;3.95;;;;;;;9.87;100.00;102614.19;10569835;28;20023;-75
2022/10/03 00:45:56;;;;;;;6.30;2.50;;;;;;;9.88;100.00;102611.31;10587453;28;20058;-74
2022/10/03 00:51:18;;;;;;;7.22;3.05;;;;;;;9.81;100.00;102621.03;10568802;28;20067;-75
2022/10/03 00:56:22;;;;;;;4.20;3.40;;;;;;;9.81;100.00;102618.31;10570836;28;20035;-75
2022/10/03 01:01:27;;;;;;;6.80;2.75;;;;;;;9.74;100.00;102614.53;10554866;28;20027;-74
2022/10/03 01:06:28;;;;;;;10.40;2.53;;;;;;;9.79;100.00;102633.84;10570774;28;20023;-75
2022/10/03 01:11:35;;;;;;;13.77;4.13;;;;;;;9.78;100.00;102629.44;10568441;28;20110;-74
2022/10/03 01:16:50;;;;;;;12.50;4.15;;;;;;;9.73;100.00;102624.50;10568883;28;20023;-74
2022/10/03 01:22:19;;;;;;;14.52;2.17;;;;;;;9.75;100.00;102629.75;10587046;28;20164;-75
2022/10/03 01:30:21;;;;;;;10.75;2.65;;;;;;;9.73;100.00;102629.91;10568870;28;20118;-74
2022/10/03 01:33:12;;;;;;;14.82;3.75;;;;;;;9.76;100.00;102623.31;10586569;28;20039;-75
2022/10/03 01:38:39;;;;;;;2.28;2.08;;;;;;;9.82;100.00;102638.97;10569833;28;20451;-74
2022/10/03 01:43:50;;;;;;;5.40;2.75;;;;;;;9.72;100.00;102639.00;10571206;28;20047;-74
2022/10/03 01:49:06;;;;;;;7.25;2.58;;;;;;;9.67;100.00;102632.38;10553040;28;20038;-75
2022/10/03 01:54:32;;;;;;;7.07;3.20;;;;;;;9.64;100.00;102632.66;10567898;28;20416;-74
2022/10/03 01:59:58;;;;;;;8.57;1.58;;;;;;;9.67;100.00;102641.31;10555646;28;20042;-73
2022/10/03 02:05:04;;;;;;;15.32;3.22;;;;;;;9.61;100.00;102641.91;10609944;28;20063;-75
2022/10/03 02:10:23;;;;;;;4.87;2.20;;;;;;;9.73;100.00;102648.84;10580512;28;20027;-74
2022/10/03 02:15:43;;;;;;;5.72;2.97;;;;;;;9.76;100.00;102643.16;10589977;28;20016;-74
2022/10/03 02:20:52;;;;;;;3.28;1.80;;;;;;;9.86;100.00;102634.97;10569109;28;20028;-75
2022/10/03 02:26:16;;;;;;;3.78;2.90;;;;;;;9.78;100.00;102638.41;10553394;28;20382;-75
2022/10/03 02:31:43;;;;;;;7.18;2.83;;;;;;;9.75;100.00;102633.28;10569249;28;20030;-75
2022/10/03 02:37:16;;;;;;;8.10;2.60;;;;;;;9.71;100.00;102642.72;10583854;28;20031;-74
2022/10/03 02:42:35;;;;;;;8.70;2.42;;;;;;;9.65;100.00;102631.66;10550584;28;20023;-75
2022/10/03 02:47:43;;;;;;;4.85;2.47;;;;;;;9.57;100.00;102636.94;10583862;28;20479;-75
2022/10/03 02:53:14;;;;;;;7.55;3.13;;;;;;;9.48;100.00;102647.66;10549110;28;20379;-75
2022/10/03 02:58:37;;;;;;;5.03;2.53;;;;;;;9.44;100.00;102635.41;10584128;28;20510;-75
2022/10/03 03:04:12;;;;;;;2.70;2.50;;;;;;;9.37;100.00;102645.13;10583719;28;20035;-74
2022/10/03 03:09:19;;;;;;;6.32;2.47;;;;;;;9.36;100.00;102650.69;10564357;28;20054;-75
2022/10/03 03:14:57;;;;;;;4.90;2.90;;;;;;;9.38;100.00;102644.13;10581779;28;20024;-75
2022/10/03 03:20:30;;;;;;;8.15;2.20;;;;;;;9.41;100.00;102643.84;10564701;28;20027;-74
2022/10/03 03:25:45;;;;;;;11.80;3.47;;;;;;;9.49;100.00;102648.50;10570417;28;20054;-75
2022/10/03 03:31:11;;;;;;;6.00;2.75;;;;;;;9.80;100.00;102651.81;10565680;28;20027;-75
2022/10/03 03:36:34;;;;;;;5.50;3.35;;;;;;;10.19;100.00;102651.59;10564487;28;20374;-75
2022/10/03 03:41:58;;;;;;;6.03;2.95;;;;;;;10.45;100.00;102647.16;10563977;28;20371;-75
2022/10/03 03:47:13;;;;;;;9.57;3.47;;;;;;;10.66;100.00;102649.56;10563753;28;20062;-75
2022/10/03 03:52:28;;;;;;;13.23;3.25;;;;;;;10.82;100.00;102651.56;10582093;28;20386;-76
2022/10/03 03:58:03;;;;;;;5.82;2.63;;;;;;;10.97;100.00;102643.72;10583919;28;20031;-74
2022/10/03 04:03:42;;;;;;;5.05;2.28;;;;;;;11.06;100.00;102644.63;10566824;28;20028;-75
2022/10/03 04:09:04;;;;;;;10.63;3.00;;;;;;;11.10;100.00;102649.59;10589858;28;20024;-75
2022/10/03 04:14:33;;;;;;;11.77;2.47;;;;;;;10.96;100.00;102660.16;10591819;28;20028;-75
2022/10/03 04:19:52;;;;;;;2.88;2.55;;;;;;;10.68;100.00;102652.97;10570669;28;20051;-75
2022/10/03 04:25:17;;;;;;;5.93;3.03;;;;;;;10.42;100.00;102662.88;10589233;28;20451;-74
2022/10/03 04:30:36;;;;;;;8.00;2.05;;;;;;;10.20;100.00;102666.81;10572009;28;20024;-74
2022/10/03 04:36:01;;;;;;;8.02;3.25;;;;;;;10.08;100.00;102665.31;10588063;28;20497;-75
2022/10/03 04:41:16;;;;;;;6.28;2.58;;;;;;;9.99;100.00;102677.94;10519944;28;20122;-75
2022/10/03 04:46:34;;;;;;;4.40;2.00;;;;;;;9.91;100.00;102670.53;10573401;28;20055;-75
2022/10/03 04:51:49;;;;;;;9.65;2.55;;;;;;;9.87;100.00;102674.56;10609117;28;20046;-74
2022/10/03 04:56:50;;;;;;;17.38;2.92;;;;;;;9.84;100.00;102668.59;10621241;28;20024;-75
2022/10/03 05:02:15;;;;;;;10.20;2.87;;;;;;;9.84;100.00;102674.00;10580338;28;20370;-72
2022/10/03 05:07:29;;;;;;;9.77;2.85;;;;;;;9.83;100.00;102673.16;10586859;28;20309;-74
2022/10/03 05:13:11;;;;;;;5.35;1.88;;;;;;;9.78;100.00;102664.63;10569035;28;20034;-74
2022/10/03 05:18:21;;;;;;;8.48;4.75;;;;;;;9.63;100.00;102661.53;10569258;28;20028;-73
2022/10/03 05:23:33;;;;;;;9.35;2.88;;;;;;;9.59;100.00;102678.22;10568251;28;20038;-74
2022/10/03 05:29:04;;;;;;;16.90;3.55;;;;;;;9.66;100.00;102676.63;10569038;28;20405;-74
2022/10/03 05:34:43;;;;;;;8.10;3.85;;;;;;;9.61;100.00;102676.22;10585831;28;20023;-74
2022/10/03 05:39:56;;;;;;;8.25;3.05;;;;;;;9.63;100.00;102679.63;10584693;28;20095;-74
2022/10/03 05:45:11;;;;;;;11.27;4.53;;;;;;;9.67;100.00;102679.19;10567974;28;20067;-73
2022/10/03 05:50:22;;;;;;;8.45;4.57;;;;;;;9.60;100.00;102680.75;10585162;28;20485;-73
2022/10/03 05:55:29;;;;;;;16.10;3.67;;;;;;;9.65;100.00;102692.00;10583955;28;20027;-73
2022/10/03 06:01:09;;;;;;;9.90;3.90;;;;;;;9.82;100.00;102687.66;10585543;28;20024;-73
2022/10/03 06:06:19;;;;;;;6.43;3.30;;;;;;;9.98;100.00;102678.91;10573023;28;20024;-73
2022/10/03 06:11:49;;;;;;;14.40;3.25;;;;;;;10.21;100.00;102691.06;10566998;28;20035;-74
2022/10/03 06:16:56;;;;;;;5.13;3.35;;;;;;;10.60;100.00;102687.28;10564891;28;20564;-73
2022/10/03 06:22:34;;;;;;;19.30;4.25;;;;;;;10.90;100.00;102681.44;10549400;28;20032;-73
2022/10/03 06:27:49;;;;;;;;;;;;;;;11.17;100.00;102685.06;10583201;28;20515;-73
2022/10/03 06:33:28;;;;;;;22.33;6.03;;;;;;;11.37;100.00;102691.13;10583435;28;19912;-73
2022/10/03 06:38:53;;;;;;;24.13;4.15;;;;;;;11.54;100.00;102697.53;10571454;28;20036;-73
2022/10/03 06:44:32;;;;;;;10.20;4.53;;;;;;;11.67;100.00;102699.81;10567055;28;20043;-73
2022/10/03 06:49:42;;;;;;;9.02;3.05;;;;;;;11.81;100.00;102702.78;10515003;28;20118;-73
2022/10/03 06:55:03;;;;;;;7.90;4.30;;;;;;;12.01;100.00;102702.56;10552347;28;20433;-73
2022/10/03 07:00:14;;;;;;;15.77;4.60;;;;;;;12.22;100.00;102716.56;10588600;28;20049;-73
2022/10/03 07:05:52;;;;;;;6.40;3.42;;;;;;;12.44;100.00;102712.38;10565427;28;20035;-73
2022/10/03 07:11:05;;;;;;;11.35;3.83;;;;;;;12.66;100.00;102727.22;10582854;28;20029;-73
2022/10/03 07:16:27;;;;;;;5.20;3.00;;;;;;;12.86;100.00;102726.91;10587718;28;20046;-73
2022/10/03 07:21:40;;;;;;;11.32;3.42;;;;;;;13.06;100.00;102733.75;10564576;28;20106;-74
2022/10/03 07:26:55;;;;;;;6.57;3.30;;;;;;;13.28;100.00;102728.69;10582300;28;20126;-75
2022/10/03 07:32:29;;;;;;;6.28;3.88;;;;;;;13.48;100.00;102733.59;10588111;28;20165;-73
2022/10/03 07:43:14;;;;;;;22.35;6.07;;;;;;;14.50;100.00;102733.75;10606028;28;20111;-73
2022/10/03 07:48:37;;;;;;;9.20;3.72;;;;;;;15.37;100.00;102729.94;10605112;28;20043;-75
2022/10/03 07:53:59;;;;;;;15.38;4.57;;;;;;;16.17;100.00;102726.53;10602714;28;20070;-73
2022/10/03 07:59:19;;;;;;;9.43;4.03;;;;;;;17.78;100.00;102741.66;10597516;28;20051;-74
2022/10/03 08:04:31;;;;;;;11.05;4.60;;;;;;;17.93;100.00;102744.28;10598513;28;20044;-74
2022/10/03 08:09:47;;;;;;;6.07;4.03;;;;;;;16.94;100.00;102751.47;10588385;28;20024;-74
2022/10/03 08:15:12;;;;;;;7.38;2.90;;;;;;;16.61;100.00;102752.94;10588449;28;20100;-73
2022/10/03 08:20:26;;;;;;;7.85;4.18;;;;;;;16.72;100.00;102760.66;10587994;28;20035;-73
2022/10/03 08:25:28;;;;;;;11.55;3.53;;;;;;;16.67;100.00;102747.56;10570276;28;20031;-73
2022/10/03 08:30:42;;;;;;;19.05;3.33;;;;;;;16.63;100.00;102759.09;10570374;28;20067;-73
2022/10/03 08:36:10;;;;;;;21.60;3.83;;;;;;;16.70;100.00;102769.06;10558763;28;20035;-74
2022/10/03 08:41:41;;;;;;;7.75;3.42;;;;;;;16.69;100.00;102764.63;10589602;28;20040;-73
2022/10/03 08:47:09;;;;;;;14.05;3.42;;;;;;;17.36;100.00;102757.97;10568532;28;20044;-73
2022/10/03 08:52:32;;;;;;;4.55;3.63;;;;;;;17.26;100.00;102757.47;10570380;28;20031;-74
2022/10/03 08:57:53;;;;;;;12.55;4.30;;;;;;;17.11;100.00;102751.22;10587343;28;20455;-74
2022/10/03 09:03:12;;;;;;;2.70;2.50;;;;;;;17.07;100.00;102752.63;10591548;28;20061;-74
2022/10/03 09:08:25;;;;;;;8.65;4.57;;;;;;;16.88;100.00;102751.38;10591995;28;20023;-73
2022/10/03 09:14:00;;;;;;;10.05;3.83;;;;;;;16.85;100.00;102758.09;10552353;28;20111;-73
2022/10/03 09:19:08;;;;;;;8.05;3.67;;;;;;;16.83;100.00;102751.97;10587856;28;20108;-73
2022/10/03 09:24:46;;;;;;;6.07;2.47;;;;;;;16.79;100.00;102753.41;10552574;28;20053;-73
2022/10/03 09:29:55;;;;;;;16.58;3.85;;;;;;;16.74;100.00;102756.66;10586624;28;20467;-74
2022/10/03 09:35:19;;;;;;;15.02;3.35;;;;;;;16.71;100.00;102756.22;10586087;28;20078;-73
2022/10/03 09:40:36;;;;;;;3.45;2.88;;;;;;;16.70;100.00;102749.91;10569886;28;20092;-74
2022/10/03 09:45:43;;;;;;;;;;;;;;;16.65;100.00;102751.50;10566510;28;20047;-74
2022/10/03 09:50:54;;;;;;;5.47;2.95;;;;;;;16.61;100.00;102740.13;10583704;28;19911;-73
2022/10/03 09:56:18;;;;;;;3.50;3.17;;;;;;;16.65;100.00;102741.41;10566591;28;20072;-74
2022/10/03 10:01:43;;;;;;;6.07;4.50;;;;;;;16.67;100.00;102747.56;10583247;28;20031;-73
2022/10/03 10:07:04;;;;;;;12.73;3.78;;;;;;;16.64;100.00;102742.47;10585074;28;20096;-73
2022/10/03 10:12:34;;;;;;;8.60;3.67;;;;;;;16.66;100.00;102753.22;10566539;28;20031;-73
2022/10/03 10:17:57;;;;;;;5.78;3.15;;;;;;;16.55;100.00;102729.94;10537483;28;20031;-73
2022/10/03 10:23:16;;;;;;;6.28;3.20;;;;;;;16.54;100.00;102743.81;10534434;28;20031;-73
2022/10/03 10:28:23;;;;;;;7.10;3.30;;;;;;;16.49;100.00;102741.66;10595800;28;20058;-73
2022/10/03 10:33:53;;;;;;;5.88;2.75;;;;;;;16.44;100.00;102738.66;10554478;28;20378;-74
2022/10/03 10:39:09;;;;;;;7.10;3.20;;;;;;;16.36;100.00;102746.97;10564264;28;20084;-73
2022/10/03 10:44:40;;;;;;;8.30;3.45;;;;;;;16.25;100.00;102751.03;10582781;28;20126;-73
2022/10/03 10:49:49;;;;;;;5.22;3.20;;;;;;;16.18;100.00;102750.09;10582039;28;20031;-73
2022/10/03 10:55:26;;;;;;;7.65;3.35;;;;;;;16.07;100.00;102742.38;10582133;28;20032;-74
2022/10/03 11:00:38;;;;;;;14.98;3.63;;;;;;;16.07;100.00;102736.91;10582792;28;20444;-73
2022/10/03 11:06:21;;;;;;;14.05;3.40;;;;;;;16.07;100.00;102745.09;10564944;28;20062;-73
2022/10/03 11:11:52;;;;;;;4.13;3.55;;;;;;;16.10;100.00;102747.47;10576175;28;20462;-73
2022/10/03 11:17:16;;;;;;;10.07;3.17;;;;;;;16.06;100.00;102740.69;10575159;28;20023;-73
2022/10/03 11:22:38;;;;;;;8.70;3.35;;;;;;;16.06;100.00;102746.16;10571847;28;20118;-74
2022/10/03 11:27:54;;;;;;;10.57;5.45;;;;;;;16.03;100.00;102744.63;10571968;28;20064;-74
2022/10/03 11:33:38;;;;;;;7.53;2.70;;;;;;;16.06;100.00;102733.31;10556217;28;20031;-73
2022/10/03 11:38:46;;;;;;;6.72;3.88;;;;;;;16.12;100.00;102735.31;10574219;28;20340;-73
2022/10/03 11:43:54;;;;;;;11.40;3.33;;;;;;;16.14;100.00;102733.22;10589514;28;20095;-73
2022/10/03 11:49:02;;;;;;;13.88;3.08;;;;;;;16.19;100.00;102727.19;10570282;28;20429;-73
2022/10/03 11:54:31;;;;;;;7.18;3.03;;;;;;;16.20;100.00;102726.97;10570896;28;20144;-73
2022/10/03 12:00:01;;;;;;;12.32;4.85;;;;;;;16.27;100.00;102718.88;10590289;28;20087;-73
2022/10/03 12:05:35;;;;;;;5.53;3.53;;;;;;;16.40;100.00;102721.78;10568975;28;20082;-74
2022/10/03 12:11:12;;;;;;;6.22;3.75;;;;;;;16.52;100.00;102728.44;10589599;28;20096;-74
2022/10/03 12:16:26;;;;;;;14.27;3.30;;;;;;;16.81;100.00;102729.41;10591694;28;20123;-73
2022/10/03 12:21:54;;;;;;;6.82;3.58;;;;;;;17.24;100.00;102712.16;10574116;28;20177;-74
2022/10/03 12:26:59;;;;;;;13.32;4.47;;;;;;;17.66;100.00;102711.19;10577953;28;20035;-73
2022/10/03 12:32:11;;;;;;;21.98;4.10;;;;;;;17.67;98.94;102719.19;10576411;28;20024;-74
2022/10/03 12:37:23;;;;;;;14.32;3.33;;;;;;;17.67;98.08;102707.41;10575447;28;20035;-75
2022/10/03 12:42:28;;;;;;;12.65;5.75;;;;;;;17.72;99.58;102710.41;10588669;28;20027;-73
2022/10/03 12:47:54;;;;;;;15.35;5.68;;;;;;;17.63;98.08;102701.47;10588275;28;20068;-73
2022/10/03 12:53:16;;;;;;;7.22;3.63;;;;;;;17.70;98.64;102703.41;10587102;28;20038;-73
2022/10/03 12:58:35;;;;;;;5.55;3.40;;;;;;;17.87;95.33;102708.44;10586537;28;20403;-73
2022/10/03 13:03:57;;;;;;;12.73;3.15;;;;;;;18.04;96.70;102706.19;10586035;28;20038;-73
2022/10/03 13:09:19;;;;;;;7.38;3.17;;;;;;;18.20;95.93;102691.28;10585418;28;20032;-74
2022/10/03 13:14:47;;;;;;;9.27;2.90;;;;;;;18.33;98.36;102702.31;10574423;28;20356;-74
2022/10/03 13:19:56;;;;;;;11.95;5.05;;;;;;;18.22;96.57;102691.94;10599584;28;20019;-73
2022/10/03 13:25:01;;;;;;;8.18;4.72;;;;;;;18.00;92.33;102682.97;10588115;28;20042;-73
2022/10/03 13:30:04;;;;;;;6.97;4.53;;;;;;;17.80;90.90;102693.81;10551165;28;20046;-74
2022/10/03 13:40:26;;;;;;;16.00;3.83;;;;;;;17.74;96.83;102680.91;10570077;28;20035;-73
2022/10/03 13:45:27;;;;;;;8.40;3.70;;;;;;;17.71;96.81;102678.56;10547634;28;20051;-73
2022/10/03 13:50:35;;;;;;;8.38;2.65;;;;;;;17.70;96.62;102673.28;10549479;28;20036;-73
2022/10/03 13:55:43;;;;;;;4.93;2.63;;;;;;;17.73;96.83;102670.13;10550853;28;20027;-75
2022/10/03 14:01:24;;;;;;;4.90;3.47;;;;;;;17.78;97.04;102663.03;10492094;28;20701;-74
2022/10/03 14:06:26;;;;;;;14.80;4.38;;;;;;;17.70;95.92;102657.69;10491301;28;20044;-74
2022/10/03 14:11:35;;;;;;;7.43;3.75;;;;;;;17.66;96.23;102656.41;10490486;28;20025;-74
2022/10/03 14:16:45;;;;;;;7.70;4.70;;;;;;;17.69;96.96;102655.16;10491506;28;20029;-74
2022/10/03 14:22:14;;;;;;;3.75;2.75;;;;;;;17.69;95.16;102645.03;10474310;28;20043;-74
2022/10/03 14:27:30;;;;;;;11.77;3.03;;;;;;;17.76;96.12;102642.34;10489974;28;20472;-74
2022/10/03 14:32:49;;;;;;;5.40;3.70;;;;;;;17.93;96.36;102623.69;10489471;28;20040;-74
2022/10/03 14:37:56;;;;;;;11.43;3.55;;;;;;;18.11;95.34;102630.28;10489125;28;20400;-74
2022/10/03 14:42:59;;;;;;;10.52;3.47;;;;;;;18.38;96.57;102618.53;10491102;28;20108;-74
2022/10/03 14:48:04;;;;;;;11.10;4.32;;;;;;;18.47;96.56;102606.31;10489570;28;20037;-74
2022/10/03 14:53:07;;;;;;;14.20;2.47;;;;;;;18.76;96.86;102595.00;10472285;28;20045;-74
2022/10/03 14:58:20;;;;;;;7.03;3.22;;;;;;;18.72;97.56;102590.97;10472013;28;20484;-74
2022/10/03 15:03:29;;;;;;;9.32;3.33;;;;;;;18.45;97.83;102589.25;10488490;28;20388;-74
2022/10/03 15:08:44;;;;;;;6.10;3.05;;;;;;;17.99;97.68;102590.81;10480952;28;20090;-74
2022/10/03 15:13:49;;;;;;;10.20;2.53;;;;;;;17.56;97.04;102590.19;10460889;28;20468;-74
2022/10/03 15:19:09;;;;;;;6.38;2.97;;;;;;;17.18;94.78;102582.38;10460352;28;20030;-74
2022/10/03 15:24:13;;;;;;;10.85;2.92;;;;;;;17.05;96.44;102574.91;10430201;28;20028;-74
2022/10/03 15:29:15;;;;;;;3.55;2.28;;;;;;;17.04;96.47;102578.72;10460286;28;20059;-74
2022/10/03 15:34:19;;;;;;;18.15;4.05;;;;;;;17.06;96.51;102584.81;10443923;28;20029;-74
2022/10/03 15:39:25;;;;;;;10.80;3.08;;;;;;;17.06;96.49;102575.75;10460423;28;20037;-74
2022/10/03 15:44:52;;;;;;;3.58;2.67;;;;;;;16.99;94.56;102561.19;10459876;28;20057;-74
2022/10/03 15:49:58;;;;;;;6.73;3.57;;;;;;;16.95;96.13;102564.31;10454147;28;20055;-74
2022/10/03 15:55:04;;;;;;;11.97;3.03;;;;;;;16.92;96.31;102550.19;10443715;28;20274;-74
2022/10/03 16:00:06;;;;;;;8.10;2.20;;;;;;;16.93;97.02;102552.72;10443524;28;20045;-74
2022/10/03 16:05:13;;;;;;;9.35;2.67;;;;;;;16.89;96.94;102556.91;10462349;28;20032;-74
2022/10/03 16:10:27;;;;;;;6.45;2.25;;;;;;;16.79;97.59;102553.69;10469939;28;20032;-74
2022/10/03 16:15:33;;;;;;;3.22;2.22;;;;;;;16.67;97.47;102539.66;10467416;28;20037;-74
2022/10/03 16:20:43;;;;;;;14.70;3.97;;;;;;;16.55;98.08;102537.66;10458229;28;20036;-74
2022/10/03 16:25:49;;;;;;;6.00;2.85;;;;;;;16.39;98.26;102528.69;10458903;28;20112;-74
2022/10/03 16:30:56;;;;;;;10.90;2.05;;;;;;;16.25;98.69;102524.97;10441599;28;20123;-74
2022/10/03 16:36:01;;;;;;;6.85;2.90;;;;;;;16.19;98.87;102523.03;10456875;28;20484;-74
2022/10/03 16:41:09;;;;;;;5.70;2.72;;;;;;;16.10;99.04;102528.81;10441412;28;20044;-74
2022/10/03 16:46:18;;;;;;;8.82;2.42;;;;;;;15.94;99.22;102519.81;10458190;28;20033;-74
2022/10/03 16:51:41;;;;;;;10.25;2.55;;;;;;;15.80;98.80;102515.28;10456974;28;20048;-74
2022/10/03 16:56:47;;;;;;;7.13;2.70;;;;;;;15.64;99.47;102520.94;10439779;28;20045;-73
2022/10/03 17:02:00;;;;;;;11.77;3.33;;;;;;;15.49;99.67;102513.59;10458280;28;20380;-74
2022/10/03 17:07:03;;;;;;;5.47;2.85;;;;;;;15.32;100.00;102525.78;10457093;28;20036;-74
2022/10/03 17:12:05;;;;;;;4.10;3.58;;;;;;;15.08;99.64;102515.97;10456092;28;20033;-74
2022/10/03 17:17:46;;;;;;;13.15;3.42;;;;;;;14.80;100.00;102515.75;10472562;28;20069;-74
2022/10/03 17:22:59;;;;;;;11.18;3.67;;;;;;;14.56;100.00;102506.81;10423468;28;20086;-74
2022/10/03 17:28:02;;;;;;;9.80;6.22;;;;;;;14.48;100.00;102506.00;10455964;28;20364;-74
2022/10/03 17:33:07;;;;;;;8.38;4.70;;;;;;;14.36;100.00;102508.31;10438781;28;20116;-74
2022/10/03 17:38:32;;;;;;;11.23;4.53;;;;;;;14.22;100.00;102507.22;10454617;28;20029;-74
2022/10/03 17:43:47;;;;;;;11.63;4.93;;;;;;;14.14;100.00;102510.88;10449145;28;20064;-74
2022/10/03 17:48:53;;;;;;;7.03;4.25;;;;;;;14.12;100.00;102518.38;10438721;28;20123;-74
2022/10/03 17:53:53;;;;;;;11.63;4.82;;;;;;;14.02;100.00;102511.47;10439371;28;20043;-74
2022/10/03 17:59:02;;;;;;;16.38;4.82;;;;;;;13.89;100.00;102498.44;10455839;28;20052;-74
2022/10/03 18:04:04;;;;;;;15.55;5.07;;;;;;;13.86;100.00;102486.03;10438524;28;20485;-74
2022/10/03 18:09:18;;;;;;;10.30;5.47;;;;;;;13.86;100.00;102475.16;10454328;28;20052;-74
2022/10/03 18:14:42;;;;;;;14.43;5.00;;;;;;;13.89;100.00;102490.28;10439236;28;20111;-75
2022/10/03 18:19:48;;;;;;;9.57;3.47;;;;;;;13.82;100.00;102489.31;10439922;28;20036;-74
2022/10/03 18:30:44;;;;;;;12.18;8.05;;;;;;;13.77;100.00;102478.09;10455164;28;20033;-74
2022/10/03 18:35:45;;;;;;;13.73;6.30;;;;;;;13.72;100.00;102484.09;10455186;28;20021;-74
2022/10/03 18:40:58;;;;;;;8.80;6.50;;;;;;;13.66;100.00;102480.22;10435444;28;20029;-75
2022/10/03 18:46:09;;;;;;;17.10;6.50;;;;;;;13.65;100.00;102497.56;10458143;28;20555;-75
2022/10/03 18:51:34;;;;;;;13.27;7.43;;;;;;;13.69;100.00;102484.47;10471345;28;20074;-75
2022/10/03 18:56:36;;;;;;;12.27;5.85;;;;;;;13.73;100.00;102485.78;10485591;28;20045;-75
2022/10/03 19:01:40;;;;;;;19.33;6.45;;;;;;;13.79;100.00;102465.16;10451536;28;20044;-75
2022/10/03 19:06:41;;;;;;;11.32;6.40;;;;;;;13.81;100.00;102463.94;10460708;28;20029;-75
2022/10/03 19:11:41;;;;;;;9.45;5.45;;;;;;;13.72;100.00;102446.84;10444045;28;20119;-75
2022/10/03 19:17:02;;;;;;;15.23;6.10;;;;;;;13.63;100.00;102456.06;10460415;28;20127;-75
2022/10/03 19:22:05;;;;;;;10.10;5.22;;;;;;;13.52;100.00;102453.75;10444467;28;20033;-75
2022/10/03 19:27:10;;;;;;;7.82;4.78;;;;;;;13.43;100.00;102446.66;10459816;28;20029;-76
2022/10/03 19:32:42;;;;;;;13.15;4.93;;;;;;;13.41;100.00;102454.16;10459966;28;20044;-75
2022/10/03 19:38:02;;;;;;;10.63;6.22;;;;;;;13.45;100.00;102455.50;10458905;28;20354;-77
2022/10/03 19:43:46;;;;;;;11.00;4.68;;;;;;;13.48;100.00;102452.41;10443814;28;20035;-74
2022/10/03 19:48:59;;;;;;;19.15;5.53;;;;;;;13.49;100.00;102454.94;10449845;28;20041;-74
2022/10/03 19:54:02;;;;;;;10.73;4.00;;;;;;;13.47;100.00;102454.31;10460327;28;20033;-74
2022/10/03 19:59:12;;;;;;;21.23;9.50;;;;;;;13.44;100.00;102460.09;10459599;28;20045;-74
2022/10/03 20:04:14;;;;;;;23.98;8.02;;;;;;;13.41;100.00;102460.44;10458760;28;20044;-74
2022/10/03 20:09:35;;;;;;;15.43;5.55;;;;;;;13.33;100.00;102460.47;10459783;28;20044;-74
2022/10/03 20:14:36;;;;;;;10.65;5.43;;;;;;;13.28;100.00;102451.19;10457914;28;20106;-74
2022/10/03 20:20:03;;;;;;;19.85;6.72;;;;;;;13.20;100.00;102462.91;10459771;28;20044;-75
2022/10/03 20:25:04;;;;;;;8.82;5.00;;;;;;;13.19;100.00;102453.88;10334059;28;20468;-75
2022/10/03 20:30:29;;;;;;;4.40;4.00;;;;;;;13.14;100.00;102442.69;10359734;28;20045;-74
2022/10/03 20:36:12;;;;;;;12.00;4.38;;;;;;;12.97;100.00;102460.09;10376448;28;20473;-74
2022/10/03 20:41:40;;;;;;;5.28;4.63;;;;;;;12.84;100.00;102457.94;10313022;28;20386;-74
2022/10/03 20:46:44;;;;;;;13.05;5.55;;;;;;;12.66;100.00;102451.84;10376935;28;20053;-74
2022/10/03 20:51:51;;;;;;;21.73;6.80;;;;;;;12.58;100.00;102450.00;10359366;28;20042;-75
2022/10/03 20:56:55;;;;;;;11.85;5.90;;;;;;;12.48;100.00;102441.22;10375602;28;20029;-74
2022/10/03 21:02:01;;;;;;;26.17;6.05;;;;;;;12.41;100.00;102445.59;10375907;28;20033;-74
2022/10/03 21:07:11;;;;;;;14.20;6.07;;;;;;;12.40;100.00;102452.06;10357829;28;20034;-74
2022/10/03 21:12:15;;;;;;;13.32;5.60;;;;;;;12.41;100.00;102448.31;10375942;28;20486;-74
2022/10/03 21:17:15;;;;;;;12.93;5.65;;;;;;;12.45;100.00;102447.00;10375286;28;20030;-74
2022/10/03 21:22:17;;;;;;;7.38;4.70;;;;;;;12.53;100.00;102447.78;10357896;28;20418;-74
2022/10/03 21:27:19;;;;;;;10.30;7.15;;;;;;;12.58;100.00;102436.44;10358847;28;20482;-74
2022/10/03 21:32:35;;;;;;;16.95;8.05;;;;;;;12.60;100.00;102437.09;10380418;28;20533;-75
2022/10/03 21:37:59;;;;;;;25.92;13.85;;;;;;;12.56;100.00;102423.00;10379331;28;20048;-75
2022/10/03 21:43:19;;;;;;;61.85;31.30;;;;;;;12.50;100.00;102406.53;10386444;28;20069;-74
2022/10/03 21:48:37;;;;;;;66.15;43.35;;;;;;;12.42;100.00;102410.13;10392668;28;20061;-74
2022/10/03 21:53:43;;;;;;;66.30;36.60;;;;;;;12.36;100.00;102390.97;10389613;28;20394;-74
2022/10/03 21:59:00;;;;;;;42.47;18.80;;;;;;;12.32;100.00;102394.03;10374264;28;20060;-74
2022/10/03 22:04:14;;;;;;;28.13;21.67;;;;;;;12.34;100.00;102372.09;10389177;28;20049;-74
2022/10/03 22:09:14;;;;;;;23.42;14.23;;;;;;;12.34;100.00;102391.97;10373858;28;20029;-74
2022/10/03 22:14:36;;;;;;;17.98;12.90;;;;;;;12.37;100.00;102376.34;10375270;28;20033;-74
2022/10/03 22:19:51;;;;;;;17.58;10.77;;;;;;;12.37;100.00;102368.19;10377366;28;20055;-74
2022/10/03 22:25:04;;;;;;;16.42;10.63;;;;;;;12.42;100.00;102372.09;10397162;28;20033;-74
2022/10/03 22:30:08;;;;;;;24.95;10.27;;;;;;;12.47;100.00;102363.41;10380445;28;20045;-74
2022/10/03 22:35:27;;;;;;;21.13;10.20;;;;;;;12.48;100.00;102357.81;10381054;28;20091;-74
2022/10/03 22:40:28;;;;;;;19.92;10.85;;;;;;;12.46;100.00;102368.00;10381514;28;20097;-74
2022/10/03 22:45:29;;;;;;;12.50;7.95;;;;;;;12.53;100.00;102366.28;10379917;28;20092;-74
2022/10/03 22:50:31;;;;;;;10.00;7.18;;;;;;;12.54;100.00;102364.44;10363815;28;20026;-74
2022/10/03 22:55:31;;;;;;;21.92;8.02;;;;;;;12.52;100.00;102353.72;10380812;28;20026;-74
2022/10/03 23:00:34;;;;;;;14.50;5.93;;;;;;;12.50;100.00;102355.75;10379711;28;20054;-74
2022/10/03 23:06:14;;;;;;;16.13;6.03;;;;;;;12.50;100.00;102350.31;10379919;28;20033;-74
2022/10/03 23:11:26;;;;;;;19.42;5.80;;;;;;;12.47;100.00;102344.41;10380491;28;20493;-74
2022/10/03 23:16:50;;;;;;;7.65;5.03;;;;;;;12.50;100.00;102344.88;10362873;28;20034;-74
2022/10/03 23:21:51;;;;;;;19.70;5.97;;;;;;;12.46;100.00;102331.84;10379839;28;20394;-74
2022/10/03 23:27:14;;;;;;;11.82;4.45;;;;;;;12.43;100.00;102333.03;10378649;28;20032;-74
2022/10/03 23:32:15;;;;;;;13.93;5.95;;;;;;;12.37;100.00;102322.88;10362650;28;20444;-74
2022/10/03 23:37:15;;;;;;;22.52;6.05;;;;;;;12.28;100.00;102326.63;10361347;28;20086;-74
2022/10/03 23:42:44;;;;;;;15.20;5.97;;;;;;;12.12;100.00;102311.22;10378867;28;20523;-74
2022/10/03 23:48:00;;;;;;;7.15;6.30;;;;;;;12.07;100.00;102300.88;10352829;28;20045;-74
2022/10/03 23:53:00;;;;;;;8.25;6.70;;;;;;;12.05;100.00;102310.22;10378735;28;20034;-74
2022/10/03 23:58:01;;;;;;;8.32;5.43;;;;;;;12.07;100.00;102324.47;10377261;28;20093;-74
